Time;durP1;ratioP1;P1;durP2;ratioP2;P2;SDS_P1;SDS_P2;PMS_P1;PMS_P2;Temp;Humidity;BMP_temperature;BMP_pressure;BME280_temperature;BME280_humidity;BME280_pressure;Samples;Min_cycle;Max_cycle;Signal;HPM_P1;HPM_P2
2023/05/30 00:01:08;;;;;;;11.10;1.45;;;;;17.50;102579.00;;;;5088677;28;20201;-80
2023/05/30 00:03:36;;;;;;;3.53;0.90;;;;;17.40;102581.00;;;;5088507;28;20285;-78
2023/05/30 00:06:04;;;;;;;3.47;1.33;;;;;17.40;102578.00;;;;5087960;28;20588;-79
2023/05/30 00:08:32;;;;;;;3.03;0.90;;;;;17.40;102584.00;;;;5088055;28;20194;-79
2023/05/30 00:11:00;;;;;;;5.05;1.67;;;;;17.40;102579.00;;;;5089612;28;20202;-79
2023/05/30 00:13:29;;;;;;;3.30;1.15;;;;;17.40;102578.00;;;;5088889;28;20202;-79
2023/05/30 00:15:57;;;;;;;7.50;1.88;;;;;17.40;102578.00;;;;5088647;28;20255;-79
2023/05/30 00:18:25;;;;;;;6.35;1.00;;;;;17.30;102585.00;;;;5088970;28;20210;-79
2023/05/30 00:20:53;;;;;;;5.47;1.20;;;;;17.30;102575.00;;;;5088190;28;20281;-79
2023/05/30 00:23:20;;;;;;;3.97;1.15;;;;;17.30;102574.00;;;;5088782;28;20197;-79
2023/05/30 00:25:48;;;;;;;3.67;1.17;;;;;17.30;102567.00;;;;5082431;28;20191;-79
2023/05/30 00:28:17;;;;;;;2.60;0.95;;;;;17.20;102566.00;;;;5088349;28;20702;-79
2023/05/30 00:30:44;;;;;;;5.20;1.80;;;;;17.20;102571.00;;;;5086179;28;20590;-79
2023/05/30 00:33:12;;;;;;;4.85;0.90;;;;;17.20;102574.00;;;;5087411;28;20229;-79
2023/05/30 00:35:40;;;;;;;5.78;1.27;;;;;17.20;102572.00;;;;5088618;28;20317;-79
2023/05/30 00:38:07;;;;;;;5.95;1.50;;;;;17.20;102578.00;;;;5087210;28;20209;-79
2023/05/30 00:40:34;;;;;;;6.72;1.00;;;;;17.20;102577.00;;;;5083510;28;20202;-79
2023/05/30 00:43:02;;;;;;;7.80;1.48;;;;;17.10;102575.00;;;;5087489;28;20205;-79
2023/05/30 00:45:30;;;;;;;4.13;1.10;;;;;17.10;102583.00;;;;5087416;28;20205;-79
2023/05/30 00:47:59;;;;;;;7.95;1.27;;;;;17.10;102580.00;;;;5086586;28;20240;-79
2023/05/30 00:50:26;;;;;;;7.25;1.20;;;;;17.10;102576.00;;;;5088037;28;20210;-79
2023/05/30 00:52:54;;;;;;;5.60;1.27;;;;;17.10;102577.00;;;;5088109;28;20214;-79
2023/05/30 00:55:22;;;;;;;7.57;1.65;;;;;17.10;102580.00;;;;5087179;28;20594;-79
2023/05/30 00:57:49;;;;;;;3.35;1.00;;;;;17.10;102576.00;;;;5087675;28;20221;-79
2023/05/30 01:00:18;;;;;;;5.25;1.23;;;;;17.10;102577.00;;;;5085513;28;20236;-79
2023/05/30 01:02:48;;;;;;;4.43;1.35;;;;;17.10;102580.00;;;;5072617;28;20198;-79
2023/05/30 01:05:16;;;;;;;3.88;0.93;;;;;17.10;102581.00;;;;5088547;28;20205;-79
2023/05/30 01:07:44;;;;;;;4.00;1.38;;;;;17.10;102573.00;;;;5087262;28;20202;-79
2023/05/30 01:10:12;;;;;;;4.68;1.25;;;;;17.00;102577.00;;;;5085696;28;20690;-79
2023/05/30 01:12:44;;;;;;;4.78;1.27;;;;;17.00;102584.00;;;;5085173;28;20668;-79
2023/05/30 01:15:15;;;;;;;4.38;1.17;;;;;17.00;102584.00;;;;5088201;28;20656;-79
2023/05/30 01:17:53;;;;;;;4.43;1.80;;;;;17.00;102584.00;;;;5089130;28;20228;-79
2023/05/30 01:20:22;;;;;;;4.65;1.02;;;;;17.00;102586.00;;;;5088612;28;20206;-80
2023/05/30 01:23:14;;;;;;;5.70;1.92;;;;;16.90;102590.00;;;;5087464;28;21058;-79
2023/05/30 01:26:07;;;;;;;6.15;1.20;;;;;16.90;102589.00;;;;5087933;28;20220;-79
2023/05/30 01:28:38;;;;;;;3.50;1.05;;;;;16.90;102585.00;;;;5088274;28;20201;-79
2023/05/30 01:31:07;;;;;;;3.28;1.10;;;;;17.00;102591.00;;;;5088222;28;20206;-79
2023/05/30 01:33:36;;;;;;;3.10;1.65;;;;;16.90;102592.00;;;;5083777;28;20229;-79
2023/05/30 01:36:04;;;;;;;3.60;1.65;;;;;16.90;102589.00;;;;5068517;28;20207;-79
2023/05/30 01:38:31;;;;;;;4.45;1.45;;;;;16.90;102589.00;;;;5068346;28;20282;-79
2023/05/30 01:41:00;;;;;;;4.78;1.30;;;;;16.90;102595.00;;;;5080936;28;20194;-79
2023/05/30 01:43:58;;;;;;;5.97;1.42;;;;;16.80;102597.00;;;;5088573;28;20202;-79
2023/05/30 01:46:31;;;;;;;3.95;1.27;;;;;16.80;102596.00;;;;5087985;28;20202;-79
2023/05/30 01:49:05;;;;;;;4.18;1.45;;;;;16.80;102602.00;;;;5088398;28;20202;-79
2023/05/30 01:51:41;;;;;;;4.03;1.27;;;;;16.80;102604.00;;;;5086283;28;20196;-79
2023/05/30 01:54:13;;;;;;;4.32;1.10;;;;;16.80;102607.00;;;;5087958;28;20194;-79
2023/05/30 01:56:45;;;;;;;5.07;1.08;;;;;16.80;102605.00;;;;5086386;28;20217;-79
2023/05/30 01:59:16;;;;;;;3.45;1.42;;;;;16.70;102603.00;;;;5085540;28;20213;-79
2023/05/30 02:01:44;;;;;;;4.10;1.40;;;;;16.70;102601.00;;;;5087702;28;20202;-79
2023/05/30 02:04:12;;;;;;;10.45;1.55;;;;;16.70;102599.00;;;;5084218;28;20209;-79
2023/05/30 02:06:39;;;;;;;6.65;1.10;;;;;16.70;102600.00;;;;5083366;28;20197;-79
2023/05/30 02:09:07;;;;;;;3.58;1.00;;;;;16.60;102601.00;;;;5086670;28;20205;-79
2023/05/30 02:11:34;;;;;;;4.80;1.17;;;;;16.60;102599.00;;;;5086755;28;20203;-80
2023/05/30 02:14:01;;;;;;;3.63;1.55;;;;;16.60;102609.00;;;;5085460;28;20199;-79
2023/05/30 02:16:30;;;;;;;6.95;1.35;;;;;16.50;102610.00;;;;5067806;28;20662;-79
2023/05/30 02:18:57;;;;;;;6.32;1.98;;;;;16.50;102605.00;;;;5078250;28;20198;-79
2023/05/30 02:21:25;;;;;;;7.85;1.50;;;;;16.40;102606.00;;;;5087543;28;20213;-79
2023/05/30 02:23:52;;;;;;;4.53;1.30;;;;;16.40;102606.00;;;;5087330;28;20198;-79
2023/05/30 02:26:20;;;;;;;4.72;1.70;;;;;16.40;102608.00;;;;5087685;28;20210;-79
2023/05/30 02:28:47;;;;;;;5.60;1.70;;;;;16.30;102608.00;;;;5088040;28;20192;-79
2023/05/30 02:31:15;;;;;;;3.85;1.00;;;;;16.30;102616.00;;;;5088113;28;20205;-79
2023/05/30 02:33:44;;;;;;;4.10;1.08;;;;;16.30;102620.00;;;;5087820;28;20230;-79
2023/05/30 02:36:12;;;;;;;3.33;1.50;;;;;16.30;102621.00;;;;5086156;28;20576;-79
2023/05/30 02:38:39;;;;;;;3.63;1.10;;;;;16.20;102609.00;;;;5069185;28;20319;-79
2023/05/30 02:41:06;;;;;;;8.55;1.20;;;;;16.20;102617.00;;;;5086697;28;20190;-79
2023/05/30 02:43:34;;;;;;;3.55;1.17;;;;;16.20;102617.00;;;;5082492;28;20217;-79
2023/05/30 02:46:04;;;;;;;2.55;1.10;;;;;16.20;102625.00;;;;5087250;28;20206;-79
2023/05/30 02:48:31;;;;;;;3.70;1.08;;;;;16.20;102619.00;;;;5087433;28;21477;-79
2023/05/30 02:51:00;;;;;;;6.25;1.60;;;;;16.20;102618.00;;;;5087252;28;20240;-79
2023/05/30 02:53:27;;;;;;;3.78;1.20;;;;;16.20;102611.00;;;;5085779;28;20210;-79
2023/05/30 02:55:56;;;;;;;3.30;1.08;;;;;16.10;102621.00;;;;5077458;28;20696;-78
2023/05/30 02:58:23;;;;;;;4.43;1.73;;;;;16.20;102613.00;;;;5085368;28;20249;-79
2023/05/30 03:00:50;;;;;;;4.63;1.42;;;;;16.20;102614.00;;;;5086969;28;20199;-79
2023/05/30 03:03:19;;;;;;;2.28;0.88;;;;;16.20;102619.00;;;;5087085;28;20202;-78
2023/05/30 03:05:47;;;;;;;3.95;1.20;;;;;16.10;102607.00;;;;5087035;28;20660;-79
2023/05/30 03:08:16;;;;;;;7.68;1.90;;;;;16.20;102616.00;;;;5086525;28;20648;-79
2023/05/30 03:10:44;;;;;;;5.10;1.55;;;;;16.20;102611.00;;;;5088053;28;20206;-79
2023/05/30 03:13:11;;;;;;;4.10;1.13;;;;;16.20;102621.00;;;;5089908;28;20209;-79
2023/05/30 03:15:39;;;;;;;5.15;1.00;;;;;16.20;102621.00;;;;5091458;28;20209;-79
2023/05/30 03:18:06;;;;;;;2.53;1.27;;;;;16.20;102618.00;;;;5081954;28;20613;-79
2023/05/30 03:20:34;;;;;;;3.28;1.25;;;;;16.20;102615.00;;;;5090988;28;20202;-79
2023/05/30 03:23:02;;;;;;;2.67;1.02;;;;;16.20;102620.00;;;;5091616;28;20214;-79
2023/05/30 03:25:30;;;;;;;4.50;1.40;;;;;16.20;102625.00;;;;5089258;28;20198;-79
2023/05/30 03:27:58;;;;;;;4.15;1.55;;;;;16.20;102622.00;;;;5090432;28;20209;-79
2023/05/30 03:30:26;;;;;;;5.07;1.63;;;;;16.20;102629.00;;;;5089382;28;20193;-79
2023/05/30 03:32:54;;;;;;;3.90;1.30;;;;;16.20;102628.00;;;;5090275;28;20321;-79
2023/05/30 03:35:22;;;;;;;4.25;1.65;;;;;16.30;102627.00;;;;5088419;28;20293;-79
2023/05/30 03:37:49;;;;;;;5.78;1.73;;;;;16.30;102627.00;;;;5090937;28;20229;-79
2023/05/30 03:40:17;;;;;;;5.97;1.45;;;;;16.30;102630.00;;;;5090443;28;21004;-79
2023/05/30 03:42:46;;;;;;;4.70;1.60;;;;;16.30;102629.00;;;;5087612;28;20195;-80
2023/05/30 03:45:13;;;;;;;2.70;0.88;;;;;16.30;102624.00;;;;5090143;28;20656;-79
2023/05/30 03:47:40;;;;;;;4.60;1.65;;;;;16.30;102639.00;;;;5089931;28;20217;-79
2023/05/30 03:50:08;;;;;;;3.72;1.63;;;;;16.30;102638.00;;;;5090036;28;20190;-79
2023/05/30 03:52:35;;;;;;;4.10;1.85;;;;;16.40;102638.00;;;;5089607;28;20238;-79
2023/05/30 03:55:03;;;;;;;6.47;1.77;;;;;16.40;102651.00;;;;5089887;28;20198;-79
2023/05/30 03:57:31;;;;;;;4.40;1.45;;;;;16.40;102653.00;;;;5088560;28;20229;-79
2023/05/30 03:59:59;;;;;;;4.20;1.30;;;;;16.40;102654.00;;;;5090212;28;20205;-79
2023/05/30 04:02:26;;;;;;;5.40;1.70;;;;;16.50;102645.00;;;;5089250;28;20201;-79
2023/05/30 04:04:55;;;;;;;3.78;1.55;;;;;16.50;102644.00;;;;5089406;28;20201;-79
2023/05/30 04:07:24;;;;;;;8.88;1.98;;;;;16.50;102652.00;;;;5089589;28;20565;-79
2023/05/30 04:09:52;;;;;;;3.20;1.63;;;;;16.50;102646.00;;;;5089802;28;20206;-79
2023/05/30 04:12:19;;;;;;;2.75;1.48;;;;;16.60;102648.00;;;;5084861;28;20302;-79
2023/05/30 04:14:46;;;;;;;5.13;1.75;;;;;16.60;102648.00;;;;5087214;28;20660;-79
2023/05/30 04:17:15;;;;;;;3.13;1.20;;;;;16.60;102645.00;;;;5089255;28;20267;-80
2023/05/30 04:19:42;;;;;;;3.88;1.38;;;;;16.70;102640.00;;;;5087711;28;20210;-79
2023/05/30 04:22:09;;;;;;;4.47;1.50;;;;;16.70;102645.00;;;;5089710;28;20190;-80
2023/05/30 04:24:36;;;;;;;7.65;1.55;;;;;16.80;102639.00;;;;5090542;28;20205;-79
2023/05/30 04:27:04;;;;;;;3.75;1.60;;;;;16.80;102641.00;;;;5088025;28;20201;-79
2023/05/30 04:29:32;;;;;;;4.53;1.95;;;;;16.80;102639.00;;;;5089366;28;20209;-79
2023/05/30 04:31:59;;;;;;;7.75;2.40;;;;;16.90;102638.00;;;;5089828;28;20201;-79
2023/05/30 04:34:28;;;;;;;3.55;1.67;;;;;16.90;102648.00;;;;5087569;28;20203;-79
2023/05/30 04:36:56;;;;;;;5.63;1.33;;;;;17.00;102643.00;;;;5087294;28;20668;-80
2023/05/30 04:39:24;;;;;;;6.30;2.08;;;;;17.00;102654.00;;;;5089015;28;20285;-79
2023/05/30 04:41:54;;;;;;;6.55;2.15;;;;;17.10;102656.00;;;;5089759;28;20212;-79
2023/05/30 04:44:22;;;;;;;4.72;2.17;;;;;17.10;102644.00;;;;5089414;28;20230;-79
2023/05/30 04:46:49;;;;;;;3.75;2.03;;;;;17.10;102652.00;;;;5090394;28;20209;-80
2023/05/30 04:49:17;;;;;;;3.17;1.50;;;;;17.20;102653.00;;;;5089344;28;20191;-80
2023/05/30 04:51:46;;;;;;;2.95;1.73;;;;;17.20;102651.00;;;;5089579;28;20606;-80
2023/05/30 04:54:14;;;;;;;5.15;2.17;;;;;17.20;102653.00;;;;5086802;28;20205;-80
2023/05/30 04:56:41;;;;;;;4.07;1.75;;;;;17.30;102644.00;;;;5086394;28;20206;-80
2023/05/30 04:59:08;;;;;;;9.38;2.15;;;;;17.30;102647.00;;;;5081841;28;20729;-79
2023/05/30 05:01:36;;;;;;;5.68;2.20;;;;;17.40;102646.00;;;;5079774;28;20198;-79
2023/05/30 05:04:03;;;;;;;2.97;1.88;;;;;17.40;102653.00;;;;5089768;28;20214;-79
2023/05/30 05:06:31;;;;;;;5.97;2.00;;;;;17.50;102660.00;;;;5089199;28;20195;-80
2023/05/30 05:08:59;;;;;;;4.25;1.83;;;;;17.50;102659.00;;;;5089700;28;20210;-78
2023/05/30 05:11:26;;;;;;;4.53;2.33;;;;;17.60;102657.00;;;;5089562;28;20276;-78
2023/05/30 05:13:54;;;;;;;5.18;1.75;;;;;17.60;102659.00;;;;5082308;28;20201;-78
2023/05/30 05:16:21;;;;;;;5.43;2.38;;;;;17.70;102663.00;;;;5089418;28;20201;-78
2023/05/30 05:18:48;;;;;;;7.10;2.28;;;;;17.70;102654.00;;;;5088537;28;20230;-79
2023/05/30 05:21:15;;;;;;;4.75;2.85;;;;;17.70;102655.00;;;;5087640;28;20210;-79
2023/05/30 05:23:43;;;;;;;6.22;2.13;;;;;17.70;102659.00;;;;5089672;28;20202;-79
2023/05/30 05:26:12;;;;;;;6.90;2.40;;;;;17.70;102663.00;;;;5087834;28;20232;-80
2023/05/30 05:28:39;;;;;;;3.88;1.85;;;;;17.80;102655.00;;;;5087246;28;20213;-79
2023/05/30 05:31:06;;;;;;;4.68;1.60;;;;;17.80;102660.00;;;;5087520;28;20209;-79
2023/05/30 05:33:34;;;;;;;3.15;1.85;;;;;17.80;102658.00;;;;5087141;28;20222;-79
2023/05/30 05:36:02;;;;;;;3.70;1.70;;;;;17.80;102655.00;;;;5083761;28;20205;-79
2023/05/30 05:38:30;;;;;;;5.57;2.67;;;;;17.80;102656.00;;;;5084132;28;20219;-79
2023/05/30 05:40:57;;;;;;;3.20;1.73;;;;;17.90;102647.00;;;;5087616;28;20583;-78
2023/05/30 05:43:25;;;;;;;6.75;2.70;;;;;17.90;102657.00;;;;5088561;28;20203;-78
2023/05/30 05:45:53;;;;;;;3.55;2.15;;;;;17.90;102653.00;;;;5087033;28;20229;-80
2023/05/30 05:48:20;;;;;;;6.60;2.97;;;;;18.00;102655.00;;;;5090143;28;20202;-78
2023/05/30 05:50:47;;;;;;;4.63;1.73;;;;;18.00;102655.00;;;;5087701;28;20210;-78
2023/05/30 05:53:15;;;;;;;5.50;2.05;;;;;18.10;102663.00;;;;5088223;28;20225;-78
2023/05/30 05:55:44;;;;;;;4.75;1.95;;;;;18.10;102657.00;;;;5086541;28;20202;-78
2023/05/30 05:58:11;;;;;;;3.90;1.70;;;;;18.20;102663.00;;;;5088333;28;20702;-77
2023/05/30 06:00:40;;;;;;;4.47;2.15;;;;;18.20;102665.00;;;;5088914;28;20251;-78
2023/05/30 06:03:07;;;;;;;2.50;1.70;;;;;18.30;102669.00;;;;5085519;28;20210;-78
2023/05/30 06:05:35;;;;;;;3.50;1.88;;;;;18.40;102667.00;;;;5086901;28;20194;-78
2023/05/30 06:08:02;;;;;;;6.25;2.38;;;;;18.40;102658.00;;;;5087531;28;20202;-78
2023/05/30 06:10:30;;;;;;;6.07;1.90;;;;;18.40;102670.00;;;;5088026;28;20229;-79
2023/05/30 06:12:57;;;;;;;10.30;2.28;;;;;18.50;102656.00;;;;5087842;28;20548;-78
2023/05/30 06:15:24;;;;;;;3.92;1.58;;;;;18.50;102661.00;;;;5087857;28;20695;-79
2023/05/30 06:17:53;;;;;;;3.13;1.80;;;;;18.50;102662.00;;;;5087572;28;20229;-78
2023/05/30 06:20:20;;;;;;;11.18;2.35;;;;;18.50;102664.00;;;;5087569;28;20198;-78
2023/05/30 06:22:47;;;;;;;3.50;1.70;;;;;18.60;102656.00;;;;5087897;28;20213;-79
2023/05/30 06:25:16;;;;;;;4.88;2.03;;;;;18.60;102664.00;;;;5087432;28;20190;-78
2023/05/30 06:27:43;;;;;;;3.13;1.65;;;;;18.70;102679.00;;;;5087343;28;20197;-79
2023/05/30 06:30:11;;;;;;;5.40;2.00;;;;;18.70;102668.00;;;;5087709;28;20194;-78
2023/05/30 06:32:38;;;;;;;3.85;1.77;;;;;18.80;102666.00;;;;5088243;28;20233;-78
2023/05/30 06:35:08;;;;;;;5.72;2.95;;;;;18.70;102671.00;;;;5087277;28;20213;-79
2023/05/30 06:37:35;;;;;;;5.05;2.35;;;;;18.80;102668.00;;;;5087668;28;20206;-78
2023/05/30 06:40:04;;;;;;;4.95;1.90;;;;;18.80;102668.00;;;;5087821;28;20699;-80
2023/05/30 06:42:34;;;;;;;4.30;2.10;;;;;18.80;102669.00;;;;5086842;28;20213;-79
2023/05/30 06:45:01;;;;;;;4.47;1.75;;;;;18.90;102671.00;;;;5088565;28;20202;-79
2023/05/30 06:47:28;;;;;;;4.63;1.80;;;;;18.90;102665.00;;;;5091923;28;20202;-78
2023/05/30 06:49:55;;;;;;;3.15;1.60;;;;;19.00;102665.00;;;;5091977;28;20303;-79
2023/05/30 06:52:24;;;;;;;4.90;2.17;;;;;19.00;102671.00;;;;5091364;28;20229;-79
2023/05/30 06:54:51;;;;;;;6.35;2.10;;;;;19.10;102670.00;;;;5091169;28;20202;-79
2023/05/30 06:57:19;;;;;;;4.22;1.83;;;;;19.10;102674.00;;;;5091548;28;20808;-79
2023/05/30 06:59:46;;;;;;;4.18;2.00;;;;;19.20;102675.00;;;;5091884;28;20646;-77
2023/05/30 07:02:13;;;;;;;8.00;2.90;;;;;19.30;102680.00;;;;5090874;28;20209;-78
2023/05/30 07:04:40;;;;;;;5.75;2.47;;;;;19.40;102686.00;;;;5090412;28;20739;-79
2023/05/30 07:07:08;;;;;;;4.15;2.15;;;;;19.40;102689.00;;;;5091542;28;20275;-79
2023/05/30 07:09:37;;;;;;;4.78;1.83;;;;;19.50;102670.00;;;;5091603;28;20585;-78
2023/05/30 07:12:05;;;;;;;3.47;1.65;;;;;19.60;102685.00;;;;5091564;28;20228;-79
2023/05/30 07:14:32;;;;;;;2.97;1.83;;;;;19.60;102682.00;;;;5091119;28;20206;-79
2023/05/30 07:16:59;;;;;;;5.25;2.50;;;;;19.60;102682.00;;;;5089872;28;20199;-79
2023/05/30 07:19:26;;;;;;;4.63;2.20;;;;;19.60;102676.00;;;;5091262;28;20228;-80
2023/05/30 07:21:54;;;;;;;7.32;2.20;;;;;19.60;102689.00;;;;5090928;28;20209;-79
2023/05/30 07:24:21;;;;;;;3.35;2.05;;;;;19.70;102685.00;;;;5090848;28;20202;-80
2023/05/30 07:26:50;;;;;;;4.88;2.08;;;;;19.70;102692.00;;;;5090689;28;20676;-79
2023/05/30 07:29:17;;;;;;;5.93;2.47;;;;;19.70;102694.00;;;;5089923;28;20202;-78
2023/05/30 07:31:45;;;;;;;4.03;2.13;;;;;19.80;102689.00;;;;5090964;28;20198;-79
2023/05/30 07:34:12;;;;;;;9.48;2.63;;;;;19.90;102684.00;;;;5090437;28;20226;-79
2023/05/30 07:36:39;;;;;;;4.93;2.28;;;;;20.00;102689.00;;;;5090892;28;20217;-79
2023/05/30 07:39:06;;;;;;;6.80;2.17;;;;;20.20;102683.00;;;;5090800;28;20316;-78
2023/05/30 07:41:34;;;;;;;5.38;1.80;;;;;20.30;102682.00;;;;5090570;28;20202;-78
2023/05/30 07:44:02;;;;;;;5.40;1.92;;;;;20.40;102675.00;;;;5090893;28;20570;-80
2023/05/30 07:46:30;;;;;;;3.70;1.90;;;;;20.50;102672.00;;;;5090756;28;20202;-79
2023/05/30 07:48:57;;;;;;;3.95;1.73;;;;;20.60;102678.00;;;;5090873;28;20200;-79
2023/05/30 07:51:24;;;;;;;4.10;2.53;;;;;20.70;102679.00;;;;5090562;28;20204;-79
2023/05/30 07:53:51;;;;;;;8.60;2.97;;;;;20.70;102686.00;;;;5088991;28;20775;-79
2023/05/30 07:56:19;;;;;;;4.35;2.10;;;;;20.80;102680.00;;;;5089416;28;20194;-78
2023/05/30 07:58:46;;;;;;;5.35;1.85;;;;;20.80;102684.00;;;;5090984;28;20222;-79
2023/05/30 08:01:15;;;;;;;4.05;1.70;;;;;20.80;102688.00;;;;5089729;28;20194;-79
2023/05/30 08:03:42;;;;;;;3.83;1.98;;;;;20.80;102686.00;;;;5090488;28;20206;-80
2023/05/30 08:06:10;;;;;;;9.38;2.45;;;;;20.90;102684.00;;;;5090321;28;20205;-79
2023/05/30 08:08:37;;;;;;;3.97;2.28;;;;;20.90;102679.00;;;;5090205;28;20214;-80
2023/05/30 08:11:05;;;;;;;6.65;2.28;;;;;21.00;102686.00;;;;5089885;28;20210;-78
2023/05/30 08:13:32;;;;;;;8.45;2.95;;;;;21.10;102675.00;;;;5090243;28;20286;-80
2023/05/30 08:15:59;;;;;;;5.88;2.40;;;;;21.20;102680.00;;;;5090325;28;20202;-79
2023/05/30 08:18:30;;;;;;;6.13;2.25;;;;;21.30;102677.00;;;;5090076;28;20229;-80
2023/05/30 08:20:57;;;;;;;4.45;2.05;;;;;21.50;102670.00;;;;5090466;28;20317;-79
2023/05/30 08:23:26;;;;;;;4.88;2.22;;;;;21.50;102677.00;;;;5090106;28;20229;-79
2023/05/30 08:25:53;;;;;;;5.15;2.35;;;;;21.60;102676.00;;;;5088274;28;20205;-79
2023/05/30 08:28:21;;;;;;;4.75;2.78;;;;;21.60;102665.00;;;;5088893;28;20202;-79
2023/05/30 08:30:49;;;;;;;5.50;2.13;;;;;21.70;102674.00;;;;5089840;28;20202;-79
2023/05/30 08:33:17;;;;;;;4.53;2.10;;;;;21.70;102672.00;;;;5089185;28;20245;-79
2023/05/30 08:35:46;;;;;;;5.35;2.25;;;;;21.70;102668.00;;;;5089418;28;20552;-79
2023/05/30 08:38:14;;;;;;;5.95;2.80;;;;;21.80;102666.00;;;;5088660;28;20198;-79
2023/05/30 08:40:43;;;;;;;3.50;2.35;;;;;21.90;102666.00;;;;5089971;28;20680;-79
2023/05/30 08:43:11;;;;;;;7.47;2.50;;;;;22.00;102659.00;;;;5089492;28;20293;-79
2023/05/30 08:45:38;;;;;;;5.55;1.77;;;;;22.10;102663.00;;;;5088996;28;20206;-79
2023/05/30 08:48:07;;;;;;;7.47;2.50;;;;;22.30;102651.00;;;;5088634;28;20209;-80
2023/05/30 08:50:37;;;;;;;3.33;1.80;;;;;22.40;102660.00;;;;5088939;28;20290;-80
2023/05/30 08:53:09;;;;;;;4.20;2.10;;;;;22.50;102664.00;;;;5089541;28;20223;-82
2023/05/30 08:55:42;;;;;;;4.28;1.80;;;;;22.60;102663.00;;;;5089281;28;20938;-81
2023/05/30 08:58:18;;;;;;;4.90;2.40;;;;;22.70;102665.00;;;;5089034;28;20214;-82
2023/05/30 09:00:46;;;;;;;7.57;2.72;;;;;22.80;102666.00;;;;5089824;28;20193;-81
2023/05/30 09:03:16;;;;;;;3.22;1.80;;;;;22.90;102662.00;;;;5088941;28;20190;-81
2023/05/30 09:05:45;;;;;;;4.22;1.88;;;;;23.00;102656.00;;;;5089254;28;20584;-80
2023/05/30 09:08:15;;;;;;;4.85;2.63;;;;;23.10;102661.00;;;;5087630;28;20203;-80
2023/05/30 09:10:47;;;;;;;4.38;1.77;;;;;23.20;102659.00;;;;5089326;28;20233;-80
2023/05/30 09:13:15;;;;;;;4.22;2.03;;;;;23.30;102643.00;;;;5088323;28;20199;-80
2023/05/30 09:15:44;;;;;;;8.05;2.05;;;;;23.40;102644.00;;;;5088113;28;20203;-80
2023/05/30 09:18:12;;;;;;;5.15;2.95;;;;;23.50;102643.00;;;;5088981;28;20209;-80
2023/05/30 09:20:40;;;;;;;4.25;2.33;;;;;23.60;102639.00;;;;5088679;28;20234;-79
2023/05/30 09:23:08;;;;;;;8.20;2.63;;;;;23.60;102643.00;;;;5089441;28;20198;-79
2023/05/30 09:25:45;;;;;;;3.47;2.10;;;;;23.70;102645.00;;;;5088369;28;20213;-79
2023/05/30 09:28:13;;;;;;;8.07;2.88;;;;;23.80;102643.00;;;;5088699;28;20233;-80
2023/05/30 09:30:56;;;;;;;4.30;2.60;;;;;23.80;102640.00;;;;5088923;28;20676;-80
2023/05/30 09:33:25;;;;;;;4.10;2.25;;;;;24.00;102630.00;;;;5088043;28;20222;-79
2023/05/30 09:35:53;;;;;;;3.78;2.38;;;;;24.10;102635.00;;;;5088157;28;20205;-82
2023/05/30 09:38:22;;;;;;;5.60;2.50;;;;;24.20;102628.00;;;;5088832;28;20210;-80
2023/05/30 09:40:55;;;;;;;5.28;2.38;;;;;24.20;102632.00;;;;5088881;28;20225;-79
2023/05/30 09:43:34;;;;;;;6.63;2.13;;;;;24.20;102630.00;;;;5067901;28;20199;-81
2023/05/30 09:46:03;;;;;;;5.38;2.20;;;;;24.40;102624.00;;;;5067475;28;20280;-80
2023/05/30 09:48:30;;;;;;;7.40;2.40;;;;;24.40;102628.00;;;;5068465;28;20656;-80
2023/05/30 09:51:01;;;;;;;6.53;2.25;;;;;24.50;102628.00;;;;5068359;28;20202;-80
2023/05/30 09:53:33;;;;;;;5.80;2.08;;;;;24.60;102620.00;;;;5068369;28;20219;-78
2023/05/30 09:56:03;;;;;;;5.07;2.13;;;;;24.60;102627.00;;;;5068260;28;20700;-78
2023/05/30 09:58:30;;;;;;;5.65;2.38;;;;;24.70;102624.00;;;;5074042;28;20789;-78
2023/05/30 10:00:59;;;;;;;4.15;2.45;;;;;24.80;102620.00;;;;5088841;28;20229;-78
2023/05/30 10:03:42;;;;;;;3.65;2.50;;;;;24.70;102626.00;;;;5088996;28;20206;-78
2023/05/30 10:06:13;;;;;;;3.45;2.60;;;;;24.90;102612.00;;;;5088148;28;20202;-78
2023/05/30 10:08:43;;;;;;;5.97;2.38;;;;;24.90;102612.00;;;;5088803;28;20202;-78
2023/05/30 10:11:13;;;;;;;5.22;2.47;;;;;25.00;102614.00;;;;5088718;28;20198;-78
2023/05/30 10:13:41;;;;;;;3.80;1.95;;;;;25.00;102611.00;;;;5088386;28;20190;-78
2023/05/30 10:16:12;;;;;;;4.38;2.10;;;;;25.00;102619.00;;;;5088852;28;20644;-79
2023/05/30 10:18:45;;;;;;;3.90;2.05;;;;;25.10;102619.00;;;;5088485;28;20202;-78
2023/05/30 10:21:15;;;;;;;3.13;1.85;;;;;25.10;102624.00;;;;5088338;28;20198;-79
2023/05/30 10:23:43;;;;;;;5.65;2.35;;;;;25.10;102623.00;;;;5088524;28;20500;-79
2023/05/30 10:26:13;;;;;;;7.22;2.70;;;;;25.00;102623.00;;;;5088604;28;20207;-78
2023/05/30 10:28:44;;;;;;;6.05;2.17;;;;;25.10;102610.00;;;;5088026;28;20209;-79
2023/05/30 10:31:13;;;;;;;7.18;2.40;;;;;25.20;102613.00;;;;5087892;28;20202;-79
2023/05/30 10:33:46;;;;;;;3.45;1.90;;;;;25.20;102614.00;;;;5088522;28;20237;-79
2023/05/30 10:36:13;;;;;;;4.30;2.20;;;;;25.20;102612.00;;;;5087824;28;20681;-78
2023/05/30 10:38:51;;;;;;;4.93;2.22;;;;;25.20;102607.00;;;;5087707;28;20687;-79
2023/05/30 10:41:25;;;;;;;5.40;2.38;;;;;25.20;102609.00;;;;5087875;28;20190;-78
2023/05/30 10:44:04;;;;;;;5.63;2.38;;;;;25.20;102607.00;;;;5088615;28;20193;-78
2023/05/30 10:46:42;;;;;;;5.80;2.13;;;;;25.20;102605.00;;;;5087416;28;20201;-78
2023/05/30 10:49:15;;;;;;;4.28;2.65;;;;;25.20;102605.00;;;;5087142;28;20214;-78
2023/05/30 10:52:03;;;;;;;2.60;1.73;;;;;25.10;102605.00;;;;5087193;28;20213;-80
2023/05/30 10:54:31;;;;;;;3.47;1.73;;;;;25.30;102598.00;;;;5087658;28;20198;-79
2023/05/30 10:57:01;;;;;;;7.57;2.00;;;;;25.30;102600.00;;;;5088571;28;20206;-79
2023/05/30 10:59:28;;;;;;;4.07;2.10;;;;;25.30;102600.00;;;;5087332;28;20758;-79
2023/05/30 11:02:02;;;;;;;5.40;2.40;;;;;25.30;102600.00;;;;5088764;28;20682;-79
2023/05/30 11:04:34;;;;;;;3.33;2.55;;;;;25.40;102594.00;;;;5087904;28;20228;-78
2023/05/30 11:07:04;;;;;;;3.40;2.17;;;;;25.40;102595.00;;;;5088118;28;20206;-78
2023/05/30 11:09:31;;;;;;;5.13;2.15;;;;;25.40;102593.00;;;;5087844;28;20198;-78
2023/05/30 11:12:01;;;;;;;4.30;2.88;;;;;25.40;102591.00;;;;5088356;28;20660;-78
2023/05/30 11:14:29;;;;;;;3.75;2.25;;;;;25.40;102607.00;;;;5087630;28;20205;-79
2023/05/30 11:17:00;;;;;;;3.45;1.90;;;;;25.40;102592.00;;;;5087395;28;20206;-79
2023/05/30 11:19:28;;;;;;;9.35;2.97;;;;;25.40;102602.00;;;;5088110;28;20233;-79
2023/05/30 11:21:59;;;;;;;4.43;2.53;;;;;25.40;102599.00;;;;5087929;28;20583;-79
2023/05/30 11:24:28;;;;;;;4.45;2.47;;;;;25.40;102597.00;;;;5087540;28;20210;-80
2023/05/30 11:27:07;;;;;;;3.25;2.13;;;;;25.40;102600.00;;;;5087300;28;20198;-79
2023/05/30 11:29:36;;;;;;;6.68;2.97;;;;;25.40;102604.00;;;;5086783;28;20740;-79
2023/05/30 11:32:07;;;;;;;3.38;2.42;;;;;25.40;102593.00;;;;5068980;28;20199;-80
2023/05/30 11:34:35;;;;;;;3.35;2.20;;;;;25.30;102588.00;;;;5071852;28;20199;-78
2023/05/30 11:37:03;;;;;;;4.60;1.90;;;;;25.30;102598.00;;;;5071378;28;20584;-78
2023/05/30 11:39:33;;;;;;;2.97;1.75;;;;;25.30;102591.00;;;;5070247;28;20300;-79
2023/05/30 11:42:02;;;;;;;5.28;2.38;;;;;25.30;102592.00;;;;5089073;28;20221;-79
2023/05/30 11:44:30;;;;;;;4.53;2.55;;;;;25.30;102589.00;;;;5091475;28;20209;-78
2023/05/30 11:46:59;;;;;;;4.13;2.25;;;;;25.30;102588.00;;;;5091253;28;20199;-79
2023/05/30 11:49:27;;;;;;;2.92;2.20;;;;;25.30;102590.00;;;;5091063;28;20281;-80
2023/05/30 11:51:55;;;;;;;3.97;2.20;;;;;25.30;102598.00;;;;5091618;28;20277;-79
2023/05/30 11:54:22;;;;;;;3.33;1.90;;;;;25.30;102592.00;;;;5090642;28;20198;-79
2023/05/30 11:56:50;;;;;;;3.90;2.83;;;;;25.30;102590.00;;;;5091645;28;20203;-80
2023/05/30 11:59:20;;;;;;;3.22;1.65;;;;;25.30;102592.00;;;;5089802;28;20214;-79
2023/05/30 12:01:52;;;;;;;2.90;1.88;;;;;25.30;102590.00;;;;5091510;28;20256;-78
2023/05/30 12:04:25;;;;;;;3.55;1.95;;;;;25.30;102591.00;;;;5090736;28;20206;-80
2023/05/30 12:06:53;;;;;;;5.68;2.35;;;;;25.30;102584.00;;;;5090592;28;20198;-80
2023/05/30 12:09:21;;;;;;;4.40;2.00;;;;;25.30;102583.00;;;;5090324;28;20206;-79
2023/05/30 12:11:59;;;;;;;2.58;1.83;;;;;25.20;102578.00;;;;5090990;28;20189;-78
2023/05/30 12:14:38;;;;;;;1.67;1.58;;;;;25.20;102587.00;;;;5090382;28;20632;-79
2023/05/30 12:17:11;;;;;;;3.17;2.17;;;;;25.30;102582.00;;;;5090377;28;20193;-78